Time;durP1;ratioP1;P1;durP2;ratioP2;P2;SDS_P1;SDS_P2;PMS_P1;PMS_P2;Temp;Humidity;BMP_temperature;BMP_pressure;BME280_temperature;BME280_humidity;BME280_pressure;Samples;Min_cycle;Max_cycle;Signal;HPM_P1;HPM_P2
2023/03/02 00:01:09;;;;;;;0.60;0.60;;;;;;;6.92;100.00;97460.88;5003343;28;20197;-60
2023/03/02 00:03:38;;;;;;;0.50;0.50;;;;;;;6.82;100.00;97453.00;5004615;28;20591;-59
2023/03/02 00:06:07;;;;;;;0.60;0.60;;;;;;;6.69;100.00;97432.06;5004332;28;20508;-60
2023/03/02 00:08:36;;;;;;;0.55;0.55;;;;;;;6.94;100.00;97447.56;5003453;28;20050;-59
2023/03/02 00:11:02;;;;;;;0.60;0.60;;;;;;;6.97;100.00;97446.88;5004417;28;20112;-59
2023/03/02 00:13:31;;;;;;;0.50;0.50;;;;;;;6.92;100.00;97449.03;5003361;28;20058;-59
2023/03/02 00:15:57;;;;;;;0.60;0.60;;;;;;;6.70;100.00;97441.91;5004338;28;20144;-59
2023/03/02 00:18:24;;;;;;;0.60;0.60;;;;;;;6.29;100.00;97439.16;5003329;28;20627;-59
2023/03/02 00:20:51;;;;;;;0.55;0.55;;;;;;;6.13;100.00;97432.59;5004406;28;20077;-60
2023/03/02 00:23:18;;;;;;;0.50;0.50;;;;;;;5.87;100.00;97429.16;5003736;28;20108;-60
2023/03/02 00:25:44;;;;;;;0.50;0.50;;;;;;;5.90;100.00;97417.50;5004131;28;20061;-60
2023/03/02 00:28:11;;;;;;;0.50;0.50;;;;;;;5.97;100.00;97417.81;5004137;28;20124;-60
2023/03/02 00:30:38;;;;;;;0.50;0.50;;;;;;;5.35;100.00;97367.28;5004362;28;20450;-59
2023/03/02 00:33:04;;;;;;;0.50;0.50;;;;;;;5.96;100.00;97410.69;5004468;28;20054;-60
2023/03/02 00:35:36;;;;;;;0.60;0.60;;;;;;;6.17;100.00;97422.53;5003952;28;20187;-60
2023/03/02 00:38:03;;;;;;;0.50;0.50;;;;;;;6.24;100.00;97414.59;5004284;28;20050;-60
2023/03/02 00:40:30;;;;;;;0.50;0.50;;;;;;;6.39;100.00;97402.97;5003826;28;20572;-60
2023/03/02 00:42:56;;;;;;;0.50;0.50;;;;;;;6.41;100.00;97408.97;5019162;28;20497;-61
2023/03/02 00:45:23;;;;;;;0.60;0.60;;;;;;;6.45;100.00;97411.84;5011628;28;20057;-60
2023/03/02 00:47:49;;;;;;;0.50;0.50;;;;;;;6.12;100.00;97342.97;5024357;28;20749;-60
2023/03/02 00:50:16;;;;;;;0.50;0.50;;;;;;;6.60;100.00;97464.34;5039996;28;20589;-59
2023/03/02 00:52:43;;;;;;;0.60;0.60;;;;;;;6.54;100.00;97383.13;5053219;28;20148;-60
2023/03/02 00:55:09;;;;;;;0.60;0.60;;;;;;;6.67;100.00;97390.28;5059761;28;20139;-59
2023/03/02 00:57:36;;;;;;;0.50;0.50;;;;;;;5.93;100.00;97265.66;5061213;28;20474;-59
2023/03/02 01:00:03;;;;;;;0.57;0.57;;;;;;;6.74;100.00;97387.81;5060491;28;20083;-60
2023/03/02 01:02:30;;;;;;;0.60;0.60;;;;;;;6.79;100.00;97401.38;5060541;28;20343;-59
2023/03/02 01:04:57;;;;;;;0.60;0.60;;;;;;;6.81;100.00;97388.06;5040016;28;20060;-61
2023/03/02 01:07:25;;;;;;;0.60;0.60;;;;;;;6.82;100.00;97378.69;5024218;28;20110;-60
2023/03/02 01:09:51;;;;;;;0.60;0.60;;;;;;;6.92;100.00;97382.97;5023616;28;20053;-61
2023/03/02 01:12:18;;;;;;;0.60;0.60;;;;;;;6.91;100.00;97392.34;5023241;28;20064;-60
2023/03/02 01:14:47;;;;;;;0.60;0.60;;;;;;;6.95;100.00;97383.09;5023461;28;20054;-60
2023/03/02 01:17:14;;;;;;;0.60;0.60;;;;;;;7.01;100.00;97380.91;5023903;28;20474;-59
2023/03/02 01:19:41;;;;;;;0.60;0.60;;;;;;;6.69;100.00;97335.72;5022962;28;20109;-60
2023/03/02 01:22:09;;;;;;;0.60;0.60;;;;;;;7.06;100.00;97381.53;5023739;28;20107;-60
2023/03/02 01:24:35;;;;;;;0.60;0.60;;;;;;;6.75;100.00;97328.06;5023199;28;20100;-59
2023/03/02 01:27:02;;;;;;;0.60;0.60;;;;;;;6.95;100.00;97344.53;5023291;28;20495;-61
2023/03/02 01:29:29;;;;;;;0.70;0.70;;;;;;;6.81;100.00;97316.47;5024184;28;20056;-59
2023/03/02 01:31:56;;;;;;;0.60;0.60;;;;;;;7.06;100.00;97384.28;5023344;28;20139;-59
2023/03/02 01:34:23;;;;;;;0.52;0.52;;;;;;;7.16;100.00;97375.56;5022450;28;20115;-60
2023/03/02 01:36:50;;;;;;;0.65;0.65;;;;;;;7.27;100.00;97385.00;5025829;28;20057;-61
2023/03/02 01:39:16;;;;;;;0.60;0.60;;;;;;;6.85;100.00;97317.44;5025736;28;20062;-59
2023/03/02 01:41:44;;;;;;;0.60;0.60;;;;;;;7.18;100.00;97383.50;5025753;28;20144;-62
2023/03/02 01:44:31;;;;;;;0.60;0.60;;;;;;;7.23;100.00;97386.84;5026974;28;20615;-61
2023/03/02 01:46:58;;;;;;;0.60;0.60;;;;;;;7.08;100.00;97393.00;5027100;28;20187;-61
2023/03/02 01:49:25;;;;;;;0.60;0.60;;;;;;;7.04;100.00;97381.06;5026695;28;20566;-61
2023/03/02 01:51:52;;;;;;;0.57;0.57;;;;;;;7.17;100.00;97390.16;5026306;28;20508;-59
2023/03/02 01:54:21;;;;;;;0.60;0.60;;;;;;;7.28;100.00;97397.66;5042076;28;20050;-60
2023/03/02 01:56:51;;;;;;;0.60;0.60;;;;;;;6.40;100.00;97247.78;5026869;28;20061;-61
2023/03/02 01:59:21;;;;;;;0.60;0.60;;;;;;;7.24;100.00;97391.22;5025308;28;20049;-61
2023/03/02 02:01:52;;;;;;;0.60;0.60;;;;;;;7.18;100.00;97392.56;5041145;28;20041;-61
2023/03/02 02:04:22;;;;;;;0.60;0.60;;;;;;;7.07;100.00;97387.81;5026368;28;20049;-61
2023/03/02 02:07:03;;;;;;;0.60;0.60;;;;;;;7.06;100.00;97389.78;5026361;28;20144;-61
2023/03/02 02:09:34;;;;;;;0.60;0.60;;;;;;;7.03;100.00;97384.97;5026477;28;20061;-62
2023/03/02 02:12:01;;;;;;;0.50;0.50;;;;;;;6.75;100.00;97350.88;5041133;28;20057;-62
2023/03/02 02:14:28;;;;;;;0.60;0.60;;;;;;;6.80;100.00;97391.97;5025242;28;20054;-61
2023/03/02 02:16:55;;;;;;;0.60;0.60;;;;;;;6.97;100.00;97391.81;5026696;28;20049;-60
2023/03/02 02:19:45;;;;;;;0.60;0.60;;;;;;;7.10;100.00;97387.94;5026438;28;20481;-61
2023/03/02 02:22:16;;;;;;;0.60;0.60;;;;;;;7.07;100.00;97393.31;5023114;28;20076;-61
2023/03/02 02:24:52;;;;;;;0.60;0.60;;;;;;;7.01;100.00;97376.22;5026566;28;20052;-62
2023/03/02 02:27:18;;;;;;;0.50;0.50;;;;;;;6.99;100.00;97389.53;5026427;28;20401;-61
2023/03/02 02:29:48;;;;;;;0.60;0.60;;;;;;;6.60;100.00;97391.97;5024622;28;20053;-61
2023/03/02 02:32:20;;;;;;;0.60;0.60;;;;;;;6.43;100.00;97335.16;5024814;28;20059;-61
2023/03/02 02:35:01;;;;;;;0.57;0.57;;;;;;;6.93;100.00;97390.88;5025900;28;20089;-61
2023/03/02 02:37:33;;;;;;;0.50;0.50;;;;;;;6.48;100.00;97387.19;5024616;28;20471;-62
2023/03/02 02:40:06;;;;;;;0.50;0.50;;;;;;;6.61;100.00;97388.88;5026125;28;20112;-61
2023/03/02 02:42:37;;;;;;;0.57;0.57;;;;;;;6.79;100.00;97397.81;5026015;28;20199;-59
2023/03/02 02:45:16;;;;;;;0.60;0.60;;;;;;;6.85;100.00;97393.69;5025968;28;20523;-61
2023/03/02 02:47:42;;;;;;;0.60;0.60;;;;;;;6.95;100.00;97382.28;5024877;28;20491;-60
2023/03/02 02:50:19;;;;;;;0.55;0.55;;;;;;;6.85;100.00;97383.50;5025354;28;20064;-61
2023/03/02 02:52:53;;;;;;;0.60;0.60;;;;;;;6.59;100.00;97396.66;5025532;28;20049;-61
2023/03/02 02:55:22;;;;;;;0.55;0.55;;;;;;;6.22;100.00;97394.84;5025514;28;20096;-61
2023/03/02 02:57:55;;;;;;;0.60;0.60;;;;;;;6.03;100.00;97394.47;5025846;28;20097;-59
2023/03/02 03:00:23;;;;;;;0.50;0.50;;;;;;;5.84;100.00;97391.34;5025425;28;20560;-59
2023/03/02 03:03:03;;;;;;;0.60;0.60;;;;;;;5.47;100.00;97387.44;5023842;28;20057;-61
2023/03/02 03:05:30;;;;;;;0.50;0.50;;;;;;;5.39;100.00;97390.22;5025529;28;20053;-61
2023/03/02 03:08:09;;;;;;;0.50;0.50;;;;;;;5.32;100.00;97389.91;5025152;28;20508;-61
2023/03/02 03:10:39;;;;;;;0.50;0.50;;;;;;;4.76;100.00;97294.97;5025667;28;20104;-61
2023/03/02 03:13:09;;;;;;;0.50;0.50;;;;;;;5.16;100.00;97364.94;5024872;28;20127;-61
2023/03/02 03:15:36;;;;;;;0.47;0.47;;;;;;;5.34;100.00;97387.66;5025196;28;20091;-61
2023/03/02 03:18:02;;;;;;;0.50;0.50;;;;;;;4.94;100.00;97350.63;5025115;28;20151;-60
2023/03/02 03:20:29;;;;;;;0.50;0.50;;;;;;;5.15;100.00;97387.22;5024691;28;20089;-61
2023/03/02 03:22:58;;;;;;;0.50;0.50;;;;;;;5.37;100.00;97387.00;5024601;28;20479;-60
2023/03/02 03:25:25;;;;;;;0.50;0.50;;;;;;;5.48;100.00;97383.56;5020226;28;20057;-61
2023/03/02 03:27:52;;;;;;;0.45;0.45;;;;;;;5.43;100.00;97385.69;5004704;28;20054;-61
2023/03/02 03:30:19;;;;;;;0.47;0.47;;;;;;;5.55;100.00;97350.06;5005075;28;20061;-61
2023/03/02 03:32:46;;;;;;;0.50;0.50;;;;;;;5.56;100.00;97385.47;5019603;28;20196;-61
2023/03/02 03:35:12;;;;;;;0.50;0.50;;;;;;;5.78;100.00;97376.16;5004921;28;20111;-60
2023/03/02 03:37:40;;;;;;;0.50;0.50;;;;;;;5.26;100.00;97303.38;5003642;28;20123;-60
2023/03/02 03:40:09;;;;;;;0.50;0.50;;;;;;;5.87;100.00;97374.19;5004669;28;20136;-61
2023/03/02 03:42:37;;;;;;;0.50;0.50;;;;;;;5.41;100.00;97365.97;5004134;28;20540;-61
2023/03/02 03:45:04;;;;;;;0.50;0.50;;;;;;;5.01;100.00;97323.47;5009534;28;20129;-61
2023/03/02 03:47:31;;;;;;;0.40;0.40;;;;;;;5.23;100.00;97375.41;5081348;28;20384;-62
2023/03/02 03:49:58;;;;;;;0.47;0.47;;;;;;;5.32;100.00;97374.25;5081643;28;20044;-61
2023/03/02 03:52:29;;;;;;;0.50;0.50;;;;;;;5.49;100.00;97373.38;5089915;28;21053;-61
2023/03/02 03:54:58;;;;;;;0.50;0.50;;;;;;;5.16;100.00;97369.63;5085223;28;20055;-62
2023/03/02 03:57:26;;;;;;;0.50;0.50;;;;;;;5.11;100.00;97367.03;5101589;28;20052;-60
2023/03/02 03:59:53;;;;;;;0.40;0.40;;;;;;;5.14;100.00;97366.41;5102090;28;20075;-60
2023/03/02 04:02:20;;;;;;;0.40;0.40;;;;;;;5.13;100.00;97349.13;5101415;28;20577;-60
2023/03/02 04:04:47;;;;;;;0.50;0.50;;;;;;;5.28;100.00;97361.50;5075526;28;20114;-61
2023/03/02 04:07:14;;;;;;;0.40;0.40;;;;;;;5.51;100.00;97354.63;5022552;28;20077;-60
2023/03/02 04:09:41;;;;;;;0.50;0.50;;;;;;;5.78;100.00;97370.66;5023905;28;20131;-61
2023/03/02 04:12:08;;;;;;;0.50;0.50;;;;;;;5.91;100.00;97366.91;5024279;28;20516;-61
2023/03/02 04:14:35;;;;;;;0.50;0.50;;;;;;;6.10;100.00;97367.28;5024058;28;20123;-60
2023/03/02 04:17:04;;;;;;;0.50;0.50;;;;;;;6.30;100.00;97371.97;5022916;28;20413;-61
2023/03/02 04:19:31;;;;;;;0.50;0.50;;;;;;;6.40;100.00;97373.53;5022561;28;20520;-60
2023/03/02 04:22:00;;;;;;;0.60;0.60;;;;;;;6.35;100.00;97369.03;5022919;28;20061;-62
2023/03/02 04:24:27;;;;;;;0.60;0.60;;;;;;;6.40;100.00;97370.78;5023888;28;20058;-62
2023/03/02 04:26:53;;;;;;;0.60;0.60;;;;;;;6.50;100.00;97368.41;5024561;28;20140;-60
2023/03/02 04:29:20;;;;;;;0.50;0.50;;;;;;;6.61;100.00;97377.88;5024180;28;20123;-59
2023/03/02 04:31:47;;;;;;;0.60;0.60;;;;;;;6.71;100.00;97382.97;5024019;28;20076;-61
2023/03/02 04:34:14;;;;;;;0.60;0.60;;;;;;;6.75;100.00;97372.91;5023522;28;20428;-60
2023/03/02 04:36:40;;;;;;;0.50;0.50;;;;;;;6.60;100.00;97364.47;5023840;28;20055;-61
2023/03/02 04:39:07;;;;;;;0.60;0.60;;;;;;;6.70;100.00;97380.56;5023805;28;20131;-60
2023/03/02 04:41:35;;;;;;;0.60;0.60;;;;;;;6.75;100.00;97364.63;5024163;28;20050;-60
2023/03/02 04:44:02;;;;;;;0.50;0.50;;;;;;;6.77;100.00;97384.38;5023853;28;20111;-61
2023/03/02 04:46:29;;;;;;;0.60;0.60;;;;;;;6.76;100.00;97384.72;5024067;28;20202;-62
2023/03/02 04:48:56;;;;;;;0.60;0.60;;;;;;;6.80;100.00;97386.47;5023902;28;20050;-62
2023/03/02 04:51:27;;;;;;;0.60;0.60;;;;;;;6.72;100.00;97362.56;5023832;28;20057;-59
2023/03/02 04:54:01;;;;;;;0.70;0.70;;;;;;;6.79;100.00;97362.84;5004000;28;20057;-60
2023/03/02 04:56:28;;;;;;;0.60;0.60;;;;;;;6.43;100.00;97315.06;5002723;28;20129;-60
2023/03/02 04:58:55;;;;;;;0.60;0.60;;;;;;;6.78;100.00;97366.72;5003381;28;20053;-60
2023/03/02 05:01:23;;;;;;;0.60;0.60;;;;;;;7.01;100.00;97398.25;5004038;28;20050;-62
2023/03/02 05:03:50;;;;;;;0.60;0.60;;;;;;;6.99;100.00;97397.78;5003909;28;20491;-62
2023/03/02 05:06:20;;;;;;;0.57;0.57;;;;;;;7.01;100.00;97398.25;5004180;28;20054;-60
2023/03/02 05:08:47;;;;;;;0.60;0.60;;;;;;;6.85;100.00;97377.19;5004297;28;20132;-60
2023/03/02 05:11:20;;;;;;;0.65;0.65;;;;;;;7.15;100.00;97415.28;5005763;28;20054;-61
2023/03/02 05:13:50;;;;;;;0.60;0.60;;;;;;;7.10;100.00;97411.94;5007642;28;20433;-62
2023/03/02 05:16:18;;;;;;;0.70;0.70;;;;;;;7.20;100.00;97412.34;5007866;28;20190;-60
2023/03/02 05:18:46;;;;;;;0.50;0.50;;;;;;;6.92;100.00;97411.31;5007574;28;20370;-60
2023/03/02 05:21:14;;;;;;;0.60;0.60;;;;;;;7.15;100.00;97409.78;5006281;28;20499;-61
2023/03/02 05:23:41;;;;;;;0.65;0.65;;;;;;;7.02;100.00;97416.38;5006370;28;20099;-60
2023/03/02 05:26:09;;;;;;;0.60;0.60;;;;;;;6.81;100.00;97406.53;5007730;28;20064;-61
2023/03/02 05:28:35;;;;;;;0.55;0.55;;;;;;;6.37;100.00;97419.00;5007183;28;20058;-61
2023/03/02 05:31:02;;;;;;;0.50;0.50;;;;;;;6.52;100.00;97396.41;5007230;28;20054;-61
2023/03/02 05:33:29;;;;;;;0.60;0.60;;;;;;;6.08;100.00;97408.03;5007452;28;20068;-61
2023/03/02 05:35:57;;;;;;;0.57;0.57;;;;;;;5.66;100.00;97387.03;5006965;28;20050;-61
2023/03/02 05:38:24;;;;;;;0.50;0.50;;;;;;;5.95;100.00;97411.84;5007055;28;20524;-60
2023/03/02 05:40:50;;;;;;;0.60;0.60;;;;;;;6.13;100.00;97427.09;5006929;28;20053;-61
2023/03/02 05:43:20;;;;;;;0.50;0.50;;;;;;;6.26;100.00;97392.25;5005588;28;20509;-61
2023/03/02 05:45:46;;;;;;;0.60;0.60;;;;;;;6.64;100.00;97426.75;5006762;28;20120;-60
2023/03/02 05:48:14;;;;;;;0.50;0.50;;;;;;;6.25;100.00;97424.44;5007297;28;20441;-60
2023/03/02 05:50:40;;;;;;;0.60;0.60;;;;;;;6.41;100.00;97422.72;5006279;28;20045;-61
2023/03/02 05:53:07;;;;;;;0.50;0.50;;;;;;;6.48;100.00;97406.47;5015898;28;20052;-61
2023/03/02 05:55:37;;;;;;;0.60;0.60;;;;;;;6.33;100.00;97398.81;5025327;28;20128;-61
2023/03/02 05:58:06;;;;;;;0.60;0.60;;;;;;;6.14;100.00;97402.03;5025769;28;20049;-62
2023/03/02 06:00:32;;;;;;;0.60;0.60;;;;;;;6.46;100.00;97408.78;5025657;28;20049;-62
2023/03/02 06:02:59;;;;;;;0.60;0.60;;;;;;;6.60;100.00;97409.31;5026160;28;20045;-61
2023/03/02 06:05:26;;;;;;;0.60;0.60;;;;;;;6.70;100.00;97413.59;5040237;28;20554;-62
2023/03/02 06:07:52;;;;;;;0.60;0.60;;;;;;;6.63;100.00;97383.84;5025456;28;20598;-63
2023/03/02 06:10:19;;;;;;;0.60;0.60;;;;;;;6.20;100.00;97344.09;5024745;28;20049;-61
2023/03/02 06:12:46;;;;;;;0.60;0.60;;;;;;;6.82;100.00;97369.59;5039845;28;20065;-62
2023/03/02 06:15:12;;;;;;;0.60;0.60;;;;;;;6.62;100.00;97412.53;5024833;28;20061;-62
2023/03/02 06:17:39;;;;;;;0.60;0.60;;;;;;;6.65;100.00;97362.31;5023414;28;20081;-60
2023/03/02 06:20:09;;;;;;;0.60;0.60;;;;;;;6.89;100.00;97378.91;5024950;28;20466;-61
2023/03/02 06:22:44;;;;;;;0.60;0.60;;;;;;;6.91;100.00;97371.13;5023946;28;20049;-61
2023/03/02 06:25:18;;;;;;;0.60;0.60;;;;;;;7.24;100.00;97413.25;5026450;28;20141;-61
2023/03/02 06:27:44;;;;;;;;;;;;;;;7.35;100.00;97425.44;5026895;28;20681;-61
2023/03/02 06:30:16;;;;;;;0.60;0.60;;;;;;;7.09;100.00;97415.84;5024373;28;20474;-61
2023/03/02 06:32:42;;;;;;;0.60;0.60;;;;;;;7.30;100.00;97425.66;5026053;28;20195;-61
2023/03/02 06:35:09;;;;;;;0.60;0.60;;;;;;;7.40;100.00;97422.47;5025504;28;20590;-61
2023/03/02 06:37:36;;;;;;;0.60;0.60;;;;;;;7.48;100.00;97409.75;5025968;28;20463;-61
2023/03/02 06:40:09;;;;;;;0.60;0.60;;;;;;;7.29;100.00;97362.63;5025713;28;20057;-61
2023/03/02 06:42:36;;;;;;;0.60;0.60;;;;;;;7.72;100.00;97427.16;5025258;28;20136;-61
2023/03/02 06:45:05;;;;;;;0.70;0.70;;;;;;;7.65;100.00;97432.41;5022291;28;20674;-58
2023/03/02 06:47:32;;;;;;;0.60;0.60;;;;;;;7.62;100.00;97441.38;5027636;28;20069;-60
2023/03/02 06:49:59;;;;;;;0.60;0.60;;;;;;;7.58;100.00;97423.91;5024617;28;20054;-60
2023/03/02 06:52:26;;;;;;;0.60;0.60;;;;;;;7.44;100.00;97428.13;5025555;28;20053;-59
2023/03/02 06:54:54;;;;;;;0.60;0.60;;;;;;;7.41;100.00;97410.31;5025089;28;20589;-60
2023/03/02 06:57:21;;;;;;;0.60;0.60;;;;;;;7.36;100.00;97399.53;5024080;28;20049;-59
2023/03/02 06:59:48;;;;;;;0.60;0.60;;;;;;;7.52;100.00;97418.97;5024835;28;20049;-59
2023/03/02 07:02:14;;;;;;;0.70;0.70;;;;;;;7.79;100.00;97440.38;5025563;28;20111;-59
2023/03/02 07:04:41;;;;;;;0.70;0.70;;;;;;;7.35;100.00;97370.34;5025154;28;20076;-59
2023/03/02 07:07:08;;;;;;;0.65;0.65;;;;;;;7.65;100.00;97421.38;5024271;28;20049;-59
2023/03/02 07:09:34;;;;;;;0.60;0.60;;;;;;;7.87;98.99;97441.41;5025231;28;20129;-61
2023/03/02 07:12:01;;;;;;;0.70;0.70;;;;;;;7.87;98.41;97435.91;5022870;28;20539;-58
2023/03/02 07:14:27;;;;;;;0.70;0.70;;;;;;;8.04;99.31;97444.78;5023519;28;20054;-59
2023/03/02 07:16:56;;;;;;;0.60;0.60;;;;;;;8.08;97.05;97442.91;5025043;28;20103;-60
2023/03/02 07:19:23;;;;;;;0.60;0.60;;;;;;;8.10;95.75;97453.59;5025373;28;20053;-60
2023/03/02 07:21:49;;;;;;;0.70;0.70;;;;;;;7.77;94.61;97397.72;5024470;28;20115;-60
2023/03/02 07:24:16;;;;;;;0.70;0.70;;;;;;;8.06;93.75;97416.84;5025417;28;20057;-60
2023/03/02 07:26:43;;;;;;;0.60;0.60;;;;;;;7.47;93.46;97367.63;5025090;28;20096;-60
2023/03/02 07:29:09;;;;;;;0.68;0.68;;;;;;;7.62;98.96;97446.88;5025044;28;20053;-59
2023/03/02 07:31:36;;;;;;;0.70;0.70;;;;;;;7.81;97.94;97453.81;5024913;28;20634;-60
2023/03/02 07:34:03;;;;;;;0.65;0.65;;;;;;;7.20;96.99;97379.28;5023466;28;20479;-59
2023/03/02 07:36:29;;;;;;;0.60;0.60;;;;;;;6.66;100.00;97390.63;5023443;28;20053;-60
2023/03/02 07:38:56;;;;;;;0.68;0.68;;;;;;;6.88;100.00;97442.59;5024709;28;20057;-59
2023/03/02 07:41:23;;;;;;;0.60;0.60;;;;;;;5.29;100.00;97277.97;5024237;28;20429;-58
2023/03/02 07:43:49;;;;;;;0.60;0.60;;;;;;;6.46;100.00;97441.78;5024252;28;20071;-57
2023/03/02 07:46:16;;;;;;;0.60;0.60;;;;;;;6.22;100.00;97452.59;5023872;28;20061;-58
2023/03/02 07:48:43;;;;;;;0.60;0.60;;;;;;;6.55;100.00;97444.47;5024514;28;20077;-62
2023/03/02 07:51:09;;;;;;;0.60;0.60;;;;;;;6.64;100.00;97399.22;5022479;28;20055;-58
2023/03/02 07:53:36;;;;;;;0.60;0.60;;;;;;;7.17;100.00;97435.03;5023921;28;20073;-61
2023/03/02 07:56:08;;;;;;;0.60;0.60;;;;;;;7.44;100.00;97456.50;5015980;28;20084;-60
2023/03/02 07:58:36;;;;;;;0.60;0.60;;;;;;;6.20;100.00;97289.84;5022108;28;20049;-64
2023/03/02 08:01:03;;;;;;;0.63;0.63;;;;;;;7.70;100.00;97459.78;5028138;28;20053;-57
2023/03/02 08:03:30;;;;;;;0.70;0.70;;;;;;;7.79;100.00;97478.16;5020846;28;20122;-63
2023/03/02 08:05:57;;;;;;;0.70;0.70;;;;;;;8.02;100.00;97460.03;5022199;28;20045;-63
2023/03/02 08:08:24;;;;;;;0.70;0.70;;;;;;;7.40;99.18;97461.06;5022297;28;20082;-63
2023/03/02 08:10:50;;;;;;;0.60;0.60;;;;;;;6.66;100.00;97451.19;5022516;28;20072;-61
2023/03/02 08:13:17;;;;;;;0.60;0.60;;;;;;;6.44;100.00;97504.59;5010795;28;20112;-59
2023/03/02 08:15:44;;;;;;;0.60;0.60;;;;;;;6.71;100.00;97449.06;5003565;28;20093;-59
2023/03/02 08:18:11;;;;;;;0.65;0.65;;;;;;;6.90;100.00;97468.66;5017234;28;20061;-64
2023/03/02 08:20:38;;;;;;;0.57;0.57;;;;;;;6.15;100.00;97408.31;5011300;28;20151;-63
2023/03/02 08:23:04;;;;;;;0.60;0.60;;;;;;;6.39;100.00;97452.50;5016212;28;20103;-59
2023/03/02 08:25:31;;;;;;;0.50;0.50;;;;;;;6.37;100.00;97438.25;2325234;28;10001948;-62
2023/03/02 08:27:58;;;;;;;0.50;0.50;;;;;;;5.84;100.00;97414.16;5001597;28;20582;-57
2023/03/02 08:32:32;;;;;;;0.50;0.50;;;;;;;5.73;100.00;97456.03;5069367;27;20997;-61
2023/03/02 08:34:59;;;;;;;0.50;0.50;;;;;;;6.14;100.00;97450.72;5039240;28;20627;-57
2023/03/02 08:37:26;;;;;;;0.50;0.50;;;;;;;4.92;100.00;97369.34;5038405;28;20502;-59
2023/03/02 08:39:52;;;;;;;0.50;0.50;;;;;;;5.48;100.00;97411.03;5038705;28;20065;-60
2023/03/02 08:42:19;;;;;;;0.55;0.55;;;;;;;5.67;100.00;97462.84;5051722;28;20106;-62
2023/03/02 08:44:46;;;;;;;0.50;0.50;;;;;;;5.83;100.00;97417.25;5049705;28;20076;-57
2023/03/02 08:47:12;;;;;;;0.50;0.50;;;;;;;6.17;100.00;97450.03;5039559;28;20093;-60
2023/03/02 08:49:39;;;;;;;0.60;0.60;;;;;;;6.40;100.00;97462.38;5039412;28;20480;-58
2023/03/02 08:52:06;;;;;;;0.60;0.60;;;;;;;6.36;100.00;97457.84;5041479;28;20045;-61
2023/03/02 08:54:36;;;;;;;0.50;0.50;;;;;;;5.83;100.00;97395.25;5041373;28;20089;-62
2023/03/02 08:57:02;;;;;;;0.60;0.60;;;;;;;5.78;100.00;97283.53;5039559;28;20587;-58
2023/03/02 08:59:29;;;;;;;0.55;0.55;;;;;;;5.98;100.00;97303.94;5039031;28;20057;-61
2023/03/02 09:01:58;;;;;;;0.60;0.60;;;;;;;6.87;100.00;97402.44;5039305;28;20246;-59
2023/03/02 09:04:24;;;;;;;0.50;0.50;;;;;;;7.21;100.00;97435.97;5038766;28;20057;-56
2023/03/02 09:06:51;;;;;;;0.52;0.52;;;;;;;7.23;100.00;97439.19;5041945;28;20125;-59
2023/03/02 09:09:17;;;;;;;0.60;0.60;;;;;;;7.43;100.00;97449.34;5041490;28;20548;-61
2023/03/02 09:11:45;;;;;;;0.60;0.60;;;;;;;7.40;100.00;97416.97;5040322;28;20067;-59
2023/03/02 09:14:12;;;;;;;0.60;0.60;;;;;;;7.38;100.00;97407.44;5039398;28;20068;-61
2023/03/02 09:16:38;;;;;;;0.70;0.70;;;;;;;7.49;100.00;97394.84;5059071;28;20064;-60
2023/03/02 09:19:05;;;;;;;0.65;0.65;;;;;;;7.73;100.00;97431.50;5038343;28;20056;-59
2023/03/02 09:21:32;;;;;;;0.60;0.60;;;;;;;7.91;100.00;97434.06;5040347;28;20391;-58
2023/03/02 09:23:59;;;;;;;0.63;0.63;;;;;;;8.06;100.00;97431.41;5052941;28;20106;-59
2023/03/02 09:26:26;;;;;;;0.70;0.70;;;;;;;8.24;99.93;97429.25;5048305;28;20048;-60
2023/03/02 09:28:54;;;;;;;0.60;0.60;;;;;;;6.38;96.46;97103.44;5037813;28;20053;-59
2023/03/02 09:31:21;;;;;;;0.70;0.70;;;;;;;7.81;96.10;97321.47;5038437;28;20061;-60
2023/03/02 09:33:48;;;;;;;0.70;0.70;;;;;;;8.46;96.34;97398.41;5038890;28;20083;-59
2023/03/02 09:36:20;;;;;;;0.70;0.70;;;;;;;8.61;96.28;97428.09;5039639;28;20053;-58
2023/03/02 09:38:47;;;;;;;0.70;0.70;;;;;;;8.56;94.81;97415.31;5037907;28;20076;-59
2023/03/02 09:41:20;;;;;;;0.70;0.70;;;;;;;8.56;94.31;97422.78;5046281;28;20545;-60
2023/03/02 09:43:58;;;;;;;0.70;0.70;;;;;;;7.88;97.35;97426.47;5027217;28;20111;-60
2023/03/02 09:46:33;;;;;;;0.60;0.60;;;;;;;7.56;99.59;97349.03;5006833;28;20049;-61
2023/03/02 09:49:05;;;;;;;0.70;0.70;;;;;;;7.81;97.10;97415.22;5012510;28;20103;-62
2023/03/02 09:52:14;;;;;;;0.60;0.60;;;;;;;7.99;98.24;97419.34;5025607;28;20120;-59
2023/03/02 09:54:41;;;;;;;0.65;0.65;;;;;;;7.97;98.88;97410.59;5018472;28;20054;-60
2023/03/02 09:57:24;;;;;;;0.68;0.68;;;;;;;7.98;98.14;97415.81;5010853;28;20053;-58
2023/03/02 09:59:57;;;;;;;0.70;0.70;;;;;;;7.89;96.88;97406.03;5025896;28;20054;-60
2023/03/02 10:03:01;;;;;;;0.65;0.65;;;;;;;8.08;97.24;97417.31;5024192;28;20216;-61
2023/03/02 10:05:46;;;;;;;0.70;0.70;;;;;;;7.83;96.42;97399.09;5025200;28;20147;-61
2023/03/02 10:08:15;;;;;;;0.70;0.70;;;;;;;8.08;97.57;97403.50;5025175;28;20516;-57
2023/03/02 10:10:47;;;;;;;0.70;0.70;;;;;;;8.03;96.65;97412.00;5025463;28;20056;-58
2023/03/02 10:13:27;;;;;;;0.70;0.70;;;;;;;8.18;96.67;97417.63;5023407;28;20498;-60
2023/03/02 10:15:53;;;;;;;0.70;0.70;;;;;;;8.19;95.28;97410.19;5025909;28;20304;-57
2023/03/02 10:18:29;;;;;;;0.70;0.70;;;;;;;8.45;96.02;97413.38;5027408;28;20161;-61
2023/03/02 10:21:02;;;;;;;0.60;0.60;;;;;;;8.48;92.62;97412.69;5025378;28;20061;-62
2023/03/02 10:23:37;;;;;;;0.70;0.70;;;;;;;8.45;92.62;97407.84;5025546;28;20060;-61
2023/03/02 10:26:13;;;;;;;0.75;0.75;;;;;;;8.36;92.63;97415.47;5025921;28;20057;-61
2023/03/02 10:29:09;;;;;;;0.70;0.70;;;;;;;5.37;92.07;96923.66;5025576;28;20049;-60
2023/03/02 10:31:39;;;;;;;0.70;0.70;;;;;;;8.23;94.00;97411.09;5016228;28;20119;-57
2023/03/02 10:34:12;;;;;;;0.65;0.65;;;;;;;8.27;93.24;97407.31;5025222;28;20132;-58
2023/03/02 10:36:43;;;;;;;0.70;0.70;;;;;;;8.04;95.10;97408.09;5025741;28;20054;-57
2023/03/02 10:39:15;;;;;;;0.70;0.70;;;;;;;7.85;95.11;97405.09;5025529;28;20049;-63
2023/03/02 10:41:54;;;;;;;0.68;0.68;;;;;;;7.59;96.56;97340.06;5040395;28;20057;-61
2023/03/02 10:44:30;;;;;;;0.60;0.60;;;;;;;7.80;95.80;97460.47;5025333;28;20127;-61
2023/03/02 10:46:58;;;;;;;0.70;0.70;;;;;;;6.24;95.71;97120.28;5025550;28;20491;-62
2023/03/02 10:49:30;;;;;;;0.70;0.70;;;;;;;8.03;96.89;97396.25;5024949;28;20503;-58
2023/03/02 10:52:02;;;;;;;0.70;0.70;;;;;;;7.81;96.04;97340.75;5025469;28;20666;-62
2023/03/02 10:54:31;;;;;;;0.70;0.70;;;;;;;7.35;93.30;97271.13;5029998;28;20088;-62
2023/03/02 10:57:00;;;;;;;0.63;0.63;;;;;;;7.87;96.55;97386.25;5042024;28;20049;-58
2023/03/02 10:59:42;;;;;;;0.70;0.70;;;;;;;8.21;95.79;97383.00;5024978;28;20049;-62
2023/03/02 11:02:28;;;;;;;0.60;0.60;;;;;;;8.34;93.80;97373.59;5024441;28;20049;-60
2023/03/02 11:05:20;;;;;;;0.60;0.60;;;;;;;8.35;95.18;97359.47;5026645;28;20049;-61
2023/03/02 11:07:58;;;;;;;0.70;0.70;;;;;;;8.53;94.47;97347.00;5024373;28;20144;-61
2023/03/02 11:10:36;;;;;;;0.60;0.60;;;;;;;7.91;92.03;97304.44;5024430;28;20516;-57
2023/03/02 11:13:35;;;;;;;0.63;0.63;;;;;;;8.61;91.24;97373.66;5019319;28;20049;-59
2023/03/02 11:16:05;;;;;;;0.60;0.60;;;;;;;7.81;90.83;97382.13;5022794;28;20076;-56
2023/03/02 11:18:53;;;;;;;0.65;0.65;;;;;;;7.07;95.61;97369.34;5024150;28;20276;-58
2023/03/02 11:21:42;;;;;;;0.60;0.60;;;;;;;6.64;99.80;97338.66;5023739;28;20169;-58
2023/03/02 11:24:14;;;;;;;0.60;0.60;;;;;;;7.15;99.68;97349.19;5029626;28;20048;-56
2023/03/02 11:26:53;;;;;;;0.70;0.70;;;;;;;7.19;98.36;97311.53;5031533;28;20076;-59
2023/03/02 11:29:29;;;;;;;0.60;0.60;;;;;;;7.06;100.00;97378.78;5024068;28;20111;-56
2023/03/02 11:31:59;;;;;;;0.60;0.60;;;;;;;6.75;99.66;97317.06;5023981;28;20085;-59
2023/03/02 11:34:29;;;;;;;0.60;0.60;;;;;;;6.92;100.00;97364.50;5023809;28;20240;-56
2023/03/02 11:37:26;;;;;;;0.60;0.60;;;;;;;6.63;100.00;97367.34;5022919;28;20111;-57
2023/03/02 11:39:59;;;;;;;0.60;0.60;;;;;;;6.37;100.00;97363.97;5023036;28;20058;-59
2023/03/02 11:42:31;;;;;;;0.50;0.50;;;;;;;6.03;100.00;97367.00;5023147;28;20345;-60
2023/03/02 11:45:07;;;;;;;0.50;0.50;;;;;;;5.97;100.00;97299.59;5015663;28;20041;-58
2023/03/02 11:47:36;;;;;;;0.50;0.50;;;;;;;6.40;100.00;97377.09;5021142;28;20076;-56